Time;durP1;ratioP1;P1;durP2;ratioP2;P2;SDS_P1;SDS_P2;PMS_P1;PMS_P2;Temp;Humidity;BMP_temperature;BMP_pressure;BME280_temperature;BME280_humidity;BME280_pressure;Samples;Min_cycle;Max_cycle;Signal;HPM_P1;HPM_P2
2023/03/17 00:02:58;;;;;;;4.83;4.20;;;7.60;99.90;;;;;;10320224;28;20232;-65
2023/03/17 00:08:34;;;;;;;5.07;4.37;;;7.50;99.90;;;;;;10323332;28;20250;-65
2023/03/17 00:13:35;;;;;;;7.70;4.57;;;7.50;99.90;;;;;;10313927;28;20234;-67
2023/03/17 00:18:36;;;;;;;5.83;4.10;;;7.50;99.90;;;;;;10319476;28;20576;-68
2023/03/17 00:23:36;;;;;;;5.60;3.97;;;7.60;99.90;;;;;;10320851;28;20221;-68
2023/03/17 00:28:37;;;;;;;7.03;4.20;;;7.60;99.90;;;;;;10324432;28;20237;-67
2023/03/17 00:33:44;;;;;;;6.10;4.17;;;7.60;99.90;;;;;;10324470;28;20221;-69
2023/03/17 00:38:44;;;;;;;5.30;4.10;;;7.60;99.90;;;;;;10319494;28;20223;-67
2023/03/17 00:43:45;;;;;;;7.57;4.17;;;7.50;99.90;;;;;;10325471;28;20229;-66
2023/03/17 00:48:47;;;;;;;5.63;4.30;;;7.50;99.90;;;;;;10323434;28;20343;-67
2023/03/17 00:53:48;;;;;;;8.97;4.17;;;7.40;99.90;;;;;;10325412;28;20305;-66
2023/03/17 00:58:48;;;;;;;5.30;4.30;;;7.40;99.90;;;;;;10323229;28;20632;-67
2023/03/17 01:03:49;;;;;;;4.10;3.63;;;7.30;99.90;;;;;;10324041;28;20266;-68
2023/03/17 01:08:49;;;;;;;4.20;3.80;;;7.30;99.90;;;;;;10322260;28;20225;-67
2023/03/17 01:13:53;;;;;;;8.63;4.13;;;7.20;99.90;;;;;;10318480;28;20211;-67
2023/03/17 01:18:53;;;;;;;5.60;3.70;;;7.20;99.90;;;;;;10322315;28;20214;-67
2023/03/17 01:23:54;;;;;;;5.23;4.17;;;7.10;99.90;;;;;;10323930;28;20241;-66
2023/03/17 01:28:55;;;;;;;5.67;4.37;;;7.10;99.90;;;;;;10321282;28;20221;-66
2023/03/17 01:33:56;;;;;;;5.63;4.50;;;7.10;99.90;;;;;;10316433;28;20424;-66
2023/03/17 01:38:57;;;;;;;7.50;4.33;;;7.10;99.90;;;;;;10325649;28;20213;-66
2023/03/17 01:43:57;;;;;;;7.93;4.20;;;7.10;99.90;;;;;;10317661;28;20218;-68
2023/03/17 01:49:16;;;;;;;5.87;3.83;;;7.10;99.90;;;;;;10323893;28;20747;-68
2023/03/17 01:54:23;;;;;;;5.07;4.17;;;7.10;99.90;;;;;;10318234;28;20230;-69
2023/03/17 01:59:29;;;;;;;6.17;4.07;;;7.00;99.90;;;;;;10317488;28;20226;-66
2023/03/17 02:04:32;;;;;;;4.77;4.07;;;7.00;99.90;;;;;;10319491;28;20249;-71
2023/03/17 02:09:33;;;;;;;5.63;4.20;;;7.00;99.90;;;;;;10314349;28;20323;-70
2023/03/17 02:14:35;;;;;;;6.63;4.10;;;6.90;99.90;;;;;;10309833;28;20222;-72
2023/03/17 02:19:36;;;;;;;7.20;4.27;;;6.90;99.90;;;;;;10323163;28;20754;-71
2023/03/17 02:24:47;;;;;;;5.10;3.87;;;6.90;99.90;;;;;;10327244;28;20249;-71
2023/03/17 02:29:48;;;;;;;5.57;3.90;;;6.90;99.90;;;;;;10315402;28;20237;-71
2023/03/17 02:34:48;;;;;;;5.97;3.80;;;6.90;99.90;;;;;;10315488;28;20221;-70
2023/03/17 02:39:49;;;;;;;4.60;3.73;;;6.80;99.90;;;;;;10317556;28;20666;-70
2023/03/17 02:44:49;;;;;;;5.10;4.20;;;6.70;99.90;;;;;;10309720;28;20249;-70
2023/03/17 02:49:51;;;;;;;5.13;4.13;;;6.60;99.90;;;;;;10326124;28;20229;-70
2023/03/17 02:54:51;;;;;;;5.27;4.20;;;6.60;99.90;;;;;;10333438;28;20233;-70
2023/03/17 02:59:52;;;;;;;4.93;4.33;;;6.50;99.90;;;;;;10323523;28;20227;-71
2023/03/17 03:04:53;;;;;;;6.67;4.40;;;6.50;99.90;;;;;;10324438;28;20226;-70
2023/03/17 03:09:53;;;;;;;4.43;3.97;;;6.50;99.90;;;;;;10329391;28;20805;-71
2023/03/17 03:14:54;;;;;;;9.30;5.00;;;6.50;99.90;;;;;;10323519;28;20246;-71
2023/03/17 03:19:54;;;;;;;4.87;4.10;;;6.50;99.90;;;;;;10325038;28;20221;-70
2023/03/17 03:24:55;;;;;;;4.53;3.63;;;6.40;99.90;;;;;;10322310;28;20259;-72
2023/03/17 03:29:56;;;;;;;5.33;3.70;;;6.40;99.90;;;;;;10320643;28;20230;-72
2023/03/17 03:34:56;;;;;;;5.13;4.40;;;6.30;99.90;;;;;;10332070;28;20214;-70
2023/03/17 03:39:57;;;;;;;5.30;4.13;;;6.20;99.90;;;;;;10328927;28;20225;-70
2023/03/17 03:44:57;;;;;;;5.40;4.50;;;6.10;99.90;;;;;;10334187;28;20228;-71
2023/03/17 03:49:58;;;;;;;7.13;4.60;;;6.00;99.90;;;;;;10327805;28;20229;-71
2023/03/17 03:54:59;;;;;;;6.13;4.30;;;6.00;99.90;;;;;;10322786;28;20226;-70
2023/03/17 03:59:59;;;;;;;5.73;4.60;;;6.00;99.90;;;;;;10322956;28;20579;-72
2023/03/17 04:05:04;;;;;;;6.37;4.47;;;5.90;99.90;;;;;;10326424;28;20824;-72
2023/03/17 04:10:06;;;;;;;6.07;4.67;;;5.80;99.90;;;;;;10318060;28;20237;-69
2023/03/17 04:15:10;;;;;;;6.67;4.47;;;5.80;99.90;;;;;;10319576;28;20183;-71
2023/03/17 04:20:12;;;;;;;6.13;4.93;;;5.70;99.90;;;;;;10316949;28;20301;-70
2023/03/17 04:25:13;;;;;;;8.63;6.10;;;5.70;99.90;;;;;;10329247;28;20234;-70
2023/03/17 04:30:15;;;;;;;11.13;6.70;;;5.70;99.90;;;;;;10321728;28;20272;-73
2023/03/17 04:35:19;;;;;;;9.70;6.57;;;5.70;99.90;;;;;;10320483;28;20190;-70
2023/03/17 04:40:20;;;;;;;10.00;6.67;;;5.70;99.90;;;;;;10328336;28;20185;-70
2023/03/17 04:45:20;;;;;;;10.83;6.40;;;5.60;99.90;;;;;;10321435;28;20186;-69
2023/03/17 04:50:21;;;;;;;7.43;5.10;;;5.60;99.90;;;;;;10320356;28;20241;-69
2023/03/17 04:55:21;;;;;;;6.43;4.83;;;5.50;99.90;;;;;;10326456;28;20971;-70
2023/03/17 05:00:22;;;;;;;6.27;5.03;;;5.40;99.90;;;;;;10330399;28;20189;-70
2023/03/17 05:05:23;;;;;;;5.13;4.40;;;5.40;99.90;;;;;;10327726;28;20190;-71
2023/03/17 05:10:23;;;;;;;6.20;4.60;;;5.30;99.90;;;;;;10320579;28;20256;-71
2023/03/17 05:15:30;;;;;;;6.80;4.60;;;5.30;99.90;;;;;;10315890;28;20658;-70
2023/03/17 05:20:30;;;;;;;6.50;4.77;;;5.10;99.90;;;;;;10322430;28;20222;-71
2023/03/17 05:25:31;;;;;;;8.73;5.00;;;5.00;99.90;;;;;;10327886;28;20590;-71
2023/03/17 05:30:32;;;;;;;6.27;5.17;;;4.90;99.90;;;;;;10324614;28;20908;-70
2023/03/17 05:35:33;;;;;;;8.50;5.60;;;4.80;99.90;;;;;;10316982;28;20230;-72
2023/03/17 05:40:34;;;;;;;8.77;5.30;;;4.70;99.90;;;;;;10325463;28;20221;-69
2023/03/17 05:45:35;;;;;;;10.20;4.93;;;4.60;99.90;;;;;;10315052;28;20268;-72
2023/03/17 05:50:38;;;;;;;6.93;4.57;;;4.50;99.90;;;;;;10319131;28;20233;-73
2023/03/17 05:55:39;;;;;;;10.87;5.50;;;4.40;99.90;;;;;;10320414;28;20367;-74
2023/03/17 06:00:40;;;;;;;8.90;5.17;;;4.40;99.90;;;;;;10325064;28;20247;-75
2023/03/17 06:05:41;;;;;;;7.20;4.57;;;4.40;99.90;;;;;;10314140;28;20226;-73
2023/03/17 06:10:42;;;;;;;10.73;5.40;;;4.40;99.90;;;;;;10310252;28;20240;-73
2023/03/17 06:15:43;;;;;;;8.23;5.43;;;4.40;99.90;;;;;;10302027;28;20262;-73
2023/03/17 06:20:43;;;;;;;7.43;4.30;;;4.50;99.90;;;;;;10315297;28;20727;-73
2023/03/17 06:25:44;;;;;;;7.67;5.00;;;4.70;99.90;;;;;;10322225;28;20248;-73
2023/03/17 06:30:45;;;;;;;8.00;4.97;;;5.00;99.90;;;;;;10322990;28;20279;-73
2023/03/17 06:35:45;;;;;;;6.80;4.30;;;5.20;99.90;;;;;;10319414;28;20226;-72
2023/03/17 06:40:49;;;;;;;5.40;4.30;;;5.50;99.90;;;;;;10315789;28;20677;-73
2023/03/17 06:45:51;;;;;;;8.13;4.77;;;5.90;99.90;;;;;;10308849;28;20222;-74
2023/03/17 06:50:51;;;;;;;6.03;4.13;;;6.10;99.90;;;;;;10316459;28;20285;-72
2023/03/17 06:55:52;;;;;;;4.40;3.50;;;6.70;99.90;;;;;;10322308;28;20852;-72
2023/03/17 07:00:54;;;;;;;6.17;3.70;;;7.10;99.90;;;;;;10324135;28;20223;-73
2023/03/17 07:05:55;;;;;;;6.00;3.90;;;7.70;99.90;;;;;;10320289;28;20239;-72
2023/03/17 07:10:56;;;;;;;4.40;3.37;;;8.30;99.90;;;;;;10317268;28;20233;-72
2023/03/17 07:15:57;;;;;;;5.60;4.27;;;8.90;99.90;;;;;;10313044;28;20233;-73
2023/03/17 07:20:58;;;;;;;7.00;3.80;;;9.20;99.90;;;;;;10308916;28;20309;-73
2023/03/17 07:26:00;;;;;;;10.77;3.83;;;9.30;99.90;;;;;;10315179;28;20777;-72
2023/03/17 07:31:01;;;;;;;6.70;3.60;;;9.30;99.90;;;;;;10315664;28;20321;-72
2023/03/17 07:36:03;;;;;;;5.10;3.67;;;9.50;99.90;;;;;;10307407;28;20304;-73
2023/03/17 07:41:08;;;;;;;4.97;3.60;;;9.80;99.90;;;;;;10319813;28;20316;-73
2023/03/17 07:46:09;;;;;;;4.43;3.60;;;10.20;99.90;;;;;;10322623;28;20241;-73
2023/03/17 07:51:15;;;;;;;9.53;4.73;;;10.60;99.90;;;;;;10325994;28;20228;-71
2023/03/17 07:56:16;;;;;;;9.03;4.07;;;11.20;99.90;;;;;;10315278;28;20652;-72
2023/03/17 08:01:18;;;;;;;3.97;3.57;;;15.10;99.90;;;;;;10313485;28;20232;-73
2023/03/17 08:06:19;;;;;;;6.43;4.00;;;18.60;75.90;;;;;;10314775;28;20226;-72
2023/03/17 08:11:20;;;;;;;10.67;4.33;;;22.50;55.60;;;;;;10315302;28;20246;-72
2023/03/17 08:16:21;;;;;;;7.87;4.50;;;25.40;45.90;;;;;;10312794;28;20675;-72
2023/03/17 08:21:22;;;;;;;15.03;4.30;;;27.80;39.90;;;;;;10313669;28;20301;-73
2023/03/17 08:26:23;;;;;;;11.90;4.33;;;29.00;37.10;;;;;;10313320;28;20232;-73
2023/03/17 08:31:24;;;;;;;11.90;4.70;;;29.90;32.90;;;;;;10310746;28;20318;-73
2023/03/17 08:36:25;;;;;;;4.50;4.10;;;28.40;34.40;;;;;;10313107;28;20303;-73
2023/03/17 08:41:27;;;;;;;6.03;4.50;;;27.70;34.80;;;;;;10313110;28;20317;-73
2023/03/17 08:46:30;;;;;;;6.07;4.23;;;27.20;36.90;;;;;;10310807;28;20225;-73
2023/03/17 08:51:33;;;;;;;6.27;4.27;;;27.30;36.10;;;;;;10296629;28;20245;-74
2023/03/17 08:56:35;;;;;;;7.03;3.83;;;25.90;37.30;;;;;;10307431;28;20228;-74
2023/03/17 09:01:36;;;;;;;7.70;4.03;;;25.90;38.30;;;;;;10312232;28;20257;-73
2023/03/17 09:06:37;;;;;;;5.00;3.70;;;26.40;38.80;;;;;;10311010;28;20599;-74
2023/03/17 09:11:38;;;;;;;5.57;4.00;;;27.00;37.20;;;;;;10304042;28;20237;-72
2023/03/17 09:16:39;;;;;;;5.87;4.00;;;28.30;35.50;;;;;;10305792;28;20241;-72
2023/03/17 09:21:39;;;;;;;7.17;5.33;;;28.60;34.80;;;;;;10329959;28;20229;-73
2023/03/17 09:26:43;;;;;;;6.33;4.73;;;29.00;33.80;;;;;;10312115;28;20936;-74
2023/03/17 09:31:44;;;;;;;6.13;4.77;;;27.90;35.10;;;;;;10317888;28;20238;-73
2023/03/17 09:36:44;;;;;;;4.73;4.30;;;26.00;37.80;;;;;;10316063;28;20585;-73
2023/03/17 09:42:00;;;;;;;4.30;3.83;;;24.40;40.00;;;;;;10333017;28;20677;-73
2023/03/17 09:47:18;;;;;;;7.00;4.50;;;24.50;41.40;;;;;;10315304;28;20227;-74
2023/03/17 09:52:26;;;;;;;6.80;4.83;;;23.90;40.40;;;;;;10302908;28;20269;-73
2023/03/17 09:57:38;;;;;;;5.53;4.53;;;24.80;40.00;;;;;;10321115;28;20366;-73
2023/03/17 10:02:40;;;;;;;6.23;4.43;;;24.90;39.60;;;;;;10302373;28;20229;-73
2023/03/17 10:07:48;;;;;;;5.20;4.63;;;24.40;39.60;;;;;;10308373;28;20302;-73
2023/03/17 10:13:20;;;;;;;5.07;4.57;;;22.70;42.20;;;;;;10305354;28;20237;-74
2023/03/17 10:18:26;;;;;;;7.10;4.87;;;22.10;43.60;;;;;;10298202;28;20225;-74
2023/03/17 10:23:30;;;;;;;6.70;4.90;;;22.40;43.70;;;;;;10301725;28;20241;-73
2023/03/17 10:28:37;;;;;;;5.10;4.40;;;22.20;43.80;;;;;;10306913;28;20217;-74
2023/03/17 10:33:38;;;;;;;5.97;4.93;;;21.70;44.10;;;;;;10316319;28;20234;-73
2023/03/17 10:38:38;;;;;;;7.07;4.77;;;21.70;45.10;;;;;;10314354;28;20235;-73
2023/03/17 10:43:44;;;;;;;9.60;5.30;;;20.70;46.50;;;;;;10301535;28;20233;-74
2023/03/17 10:48:53;;;;;;;5.47;4.57;;;21.70;45.90;;;;;;10316143;28;20230;-73
2023/03/17 10:53:54;;;;;;;7.33;5.00;;;21.90;45.10;;;;;;10316390;28;20210;-74
2023/03/17 10:58:55;;;;;;;5.67;4.93;;;23.60;42.80;;;;;;10311130;28;20225;-74
2023/03/17 11:03:56;;;;;;;4.20;3.77;;;23.60;41.80;;;;;;10306128;28;20218;-73
2023/03/17 11:09:06;;;;;;;6.97;4.27;;;25.50;39.50;;;;;;10307364;28;20218;-73
2023/03/17 11:14:14;;;;;;;8.93;4.93;;;27.10;36.80;;;;;;10318452;28;20237;-74
2023/03/17 11:19:17;;;;;;;6.30;4.00;;;26.40;37.70;;;;;;10316002;28;20693;-73
2023/03/17 11:24:31;;;;;;;6.93;4.20;;;26.20;38.60;;;;;;10321555;28;20234;-73
2023/03/17 11:30:01;;;;;;;6.00;4.57;;;26.40;39.00;;;;;;10322394;28;20283;-73
2023/03/17 11:35:16;;;;;;;6.03;4.80;;;25.80;39.00;;;;;;10312626;28;20701;-74
2023/03/17 11:40:33;;;;;;;10.00;4.53;;;24.20;42.30;;;;;;10318032;28;20256;-73
2023/03/17 11:45:42;;;;;;;6.80;4.57;;;23.10;44.30;;;;;;10313377;28;20225;-73
2023/03/17 11:51:01;;;;;;;7.00;4.57;;;22.30;44.90;;;;;;10319273;28;20653;-72
2023/03/17 11:56:09;;;;;;;5.90;4.67;;;21.70;46.10;;;;;;10310985;28;20885;-74
2023/03/17 12:01:26;;;;;;;5.50;4.60;;;21.20;44.10;;;;;;10308290;28;20227;-72
2023/03/17 12:06:31;;;;;;;9.67;5.23;;;21.20;45.20;;;;;;10319917;28;20210;-74
2023/03/17 12:11:39;;;;;;;8.17;4.97;;;20.90;46.00;;;;;;10306347;28;20693;-71
2023/03/17 12:16:53;;;;;;;8.23;4.60;;;20.60;45.80;;;;;;10318717;28;20222;-74
2023/03/17 12:22:06;;;;;;;6.43;4.60;;;20.60;47.10;;;;;;10304651;28;20230;-73
2023/03/17 12:27:41;;;;;;;6.37;4.60;;;20.50;47.20;;;;;;10310235;28;20237;-73
2023/03/17 12:32:54;;;;;;;7.40;5.20;;;20.40;46.80;;;;;;10310865;28;20225;-74
2023/03/17 12:37:58;;;;;;;6.90;4.70;;;20.40;45.70;;;;;;10319720;28;20223;-73
2023/03/17 12:43:04;;;;;;;6.30;3.90;;;19.90;46.90;;;;;;10318936;28;20723;-73
2023/03/17 12:48:14;;;;;;;4.57;3.17;;;19.90;46.80;;;;;;10319385;28;20225;-72
2023/03/17 12:53:46;;;;;;;4.83;4.20;;;20.10;45.90;;;;;;10312206;28;20234;-73
2023/03/17 12:58:52;;;;;;;5.77;4.50;;;20.40;46.40;;;;;;10312172;28;20225;-74
2023/03/17 13:04:11;;;;;;;5.67;4.47;;;20.30;46.80;;;;;;10313599;28;20249;-74
2023/03/17 13:09:31;;;;;;;5.77;4.70;;;20.30;48.80;;;;;;10305155;28;20229;-73
2023/03/17 13:14:46;;;;;;;5.03;3.77;;;20.50;48.30;;;;;;10311338;28;20305;-73
2023/03/17 13:20:06;;;;;;;6.77;4.70;;;20.60;49.10;;;;;;10302541;28;20218;-72
2023/03/17 13:25:31;;;;;;;6.50;4.57;;;20.70;49.00;;;;;;10321314;28;21143;-72
2023/03/17 13:30:35;;;;;;;6.17;4.03;;;20.50;48.20;;;;;;10302869;28;20732;-73
2023/03/17 13:35:47;;;;;;;4.97;4.37;;;20.10;49.60;;;;;;10302918;28;20221;-74
2023/03/17 13:40:52;;;;;;;6.80;4.37;;;20.10;50.70;;;;;;10300087;28;20225;-72
2023/03/17 13:46:14;;;;;;;5.70;3.80;;;20.00;50.10;;;;;;10319786;28;20219;-73
2023/03/17 13:51:32;;;;;;;7.50;4.10;;;19.90;49.20;;;;;;10312652;28;20241;-73
2023/03/17 13:56:34;;;;;;;6.03;3.67;;;19.80;49.50;;;;;;10317359;28;20218;-72
2023/03/17 14:01:58;;;;;;;5.77;3.47;;;19.50;48.90;;;;;;10309619;28;20229;-73
2023/03/17 14:07:05;;;;;;;3.67;3.17;;;19.20;49.10;;;;;;10313516;28;20279;-73
2023/03/17 14:12:20;;;;;;;4.93;3.10;;;18.90;49.50;;;;;;10307033;28;20229;-73
2023/03/17 14:17:35;;;;;;;3.77;2.60;;;18.70;50.10;;;;;;10317649;28;20226;-74
2023/03/17 14:22:45;;;;;;;4.03;2.80;;;18.80;50.00;;;;;;10317160;28;20352;-74
2023/03/17 14:27:48;;;;;;;3.47;2.33;;;18.80;50.00;;;;;;10313672;28;20229;-74
2023/03/17 14:33:00;;;;;;;4.27;2.27;;;18.80;50.10;;;;;;10304061;28;20884;-74
2023/03/17 14:38:01;;;;;;;2.10;1.90;;;18.80;49.80;;;;;;10310298;28;20272;-73
2023/03/17 14:43:02;;;;;;;3.77;1.83;;;18.90;49.70;;;;;;10310491;28;20725;-74
2023/03/17 14:48:03;;;;;;;3.47;1.80;;;18.70;47.90;;;;;;10318477;28;20232;-74
2023/03/17 14:53:07;;;;;;;3.30;2.30;;;18.40;48.50;;;;;;10322665;28;20708;-73
2023/03/17 14:58:17;;;;;;;4.23;2.10;;;18.30;48.90;;;;;;10310957;28;20234;-74
2023/03/17 15:03:21;;;;;;;4.13;2.60;;;18.20;49.00;;;;;;10322667;28;20217;-74
2023/03/17 15:08:31;;;;;;;2.57;1.57;;;18.10;49.10;;;;;;10308362;28;20568;-74
2023/03/17 15:13:36;;;;;;;4.67;1.63;;;18.00;49.50;;;;;;10308519;28;20226;-74
2023/03/17 15:18:37;;;;;;;2.43;1.70;;;18.00;48.90;;;;;;10321303;28;20297;-74
2023/03/17 15:23:39;;;;;;;2.63;2.00;;;17.80;48.90;;;;;;10317938;28;20226;-73
2023/03/17 15:28:40;;;;;;;2.83;1.97;;;17.70;49.50;;;;;;10313496;28;20224;-74
2023/03/17 15:33:41;;;;;;;4.60;1.83;;;17.60;49.30;;;;;;10309280;28;20240;-73
2023/03/17 15:38:41;;;;;;;2.83;1.53;;;17.50;50.20;;;;;;10321222;28;20217;-74
2023/03/17 15:43:42;;;;;;;2.27;1.83;;;17.50;50.80;;;;;;10309644;28;20257;-74
2023/03/17 15:48:46;;;;;;;3.17;2.10;;;17.40;51.90;;;;;;10315019;28;20532;-74
2023/03/17 15:53:46;;;;;;;3.73;2.20;;;17.40;51.70;;;;;;10312075;28;20319;-73
2023/03/17 15:58:50;;;;;;;2.93;2.00;;;17.40;51.90;;;;;;10309020;28;20279;-73
2023/03/17 16:03:51;;;;;;;2.87;1.90;;;17.20;52.70;;;;;;10318260;28;20225;-73
2023/03/17 16:08:52;;;;;;;3.50;2.33;;;17.10;53.10;;;;;;10315044;28;20235;-74
2023/03/17 16:13:54;;;;;;;4.93;2.40;;;17.00;54.00;;;;;;10311591;28;20230;-75
2023/03/17 16:18:56;;;;;;;3.37;2.70;;;16.90;55.00;;;;;;10314048;28;20371;-74
2023/03/17 16:23:57;;;;;;;6.47;2.90;;;16.70;56.30;;;;;;10317880;28;20744;-73
2023/03/17 16:28:57;;;;;;;7.80;3.60;;;16.70;57.70;;;;;;10313860;28;20307;-74
2023/03/17 16:33:58;;;;;;;5.37;3.33;;;16.50;58.70;;;;;;10308578;28;20242;-73
2023/03/17 16:39:00;;;;;;;6.17;3.63;;;16.30;60.00;;;;;;10319553;28;20280;-73
2023/03/17 16:44:01;;;;;;;5.23;3.47;;;16.20;62.10;;;;;;10315588;28;20664;-74
2023/03/17 16:49:02;;;;;;;9.60;4.10;;;16.00;63.80;;;;;;10311395;28;20766;-73
2023/03/17 16:54:03;;;;;;;6.40;3.97;;;15.80;64.80;;;;;;10317070;28;20687;-73
2023/03/17 16:59:13;;;;;;;8.27;6.13;;;15.60;65.50;;;;;;10311989;28;20414;-73
2023/03/17 17:04:13;;;;;;;7.83;4.93;;;15.50;67.20;;;;;;10325968;28;20230;-73
2023/03/17 17:09:14;;;;;;;7.67;4.83;;;15.40;68.00;;;;;;10325101;28;20228;-73
2023/03/17 17:14:14;;;;;;;7.87;4.10;;;15.20;68.40;;;;;;10313063;28;20289;-74
2023/03/17 17:19:16;;;;;;;7.63;5.30;;;15.00;70.00;;;;;;10305507;28;20219;-73
2023/03/17 17:24:16;;;;;;;7.60;5.37;;;14.90;70.90;;;;;;10320843;28;20214;-74
2023/03/17 17:29:17;;;;;;;8.40;5.30;;;14.70;72.00;;;;;;10322552;28;20784;-74
2023/03/17 17:34:18;;;;;;;7.70;5.20;;;14.60;73.20;;;;;;10325391;28;20636;-74
2023/03/17 17:39:18;;;;;;;13.17;8.00;;;14.40;74.40;;;;;;10325722;28;20215;-76
2023/03/17 17:44:19;;;;;;;10.37;5.70;;;14.30;74.70;;;;;;10324712;28;20218;-71
2023/03/17 17:49:20;;;;;;;8.07;5.10;;;14.20;74.60;;;;;;10310319;28;20226;-71
2023/03/17 17:54:20;;;;;;;6.77;4.17;;;14.10;73.90;;;;;;10316037;28;20217;-71
2023/03/17 17:59:22;;;;;;;7.57;4.70;;;14.10;74.10;;;;;;10309884;28;20227;-71
2023/03/17 18:04:24;;;;;;;7.03;5.57;;;14.10;76.00;;;;;;10312613;28;20289;-75
2023/03/17 18:09:25;;;;;;;7.83;5.60;;;14.00;77.00;;;;;;10309991;28;20222;-73
2023/03/17 18:14:26;;;;;;;9.47;6.30;;;13.90;77.70;;;;;;10317111;28;20222;-76
2023/03/17 18:19:27;;;;;;;9.80;4.83;;;13.80;80.00;;;;;;10320202;28;20217;-73
2023/03/17 18:24:28;;;;;;;7.67;4.20;;;13.70;79.90;;;;;;10325128;28;20229;-74
2023/03/17 18:29:30;;;;;;;7.20;3.90;;;13.50;80.70;;;;;;10318045;28;20226;-74
2023/03/17 18:34:34;;;;;;;8.10;4.50;;;13.40;82.90;;;;;;10324141;28;20215;-72
2023/03/17 18:39:39;;;;;;;8.63;5.00;;;13.30;83.90;;;;;;10317057;28;20716;-73
2023/03/17 18:44:40;;;;;;;6.80;5.30;;;13.20;85.40;;;;;;10317522;28;20227;-74
2023/03/17 18:49:41;;;;;;;6.93;4.83;;;13.10;86.80;;;;;;10355775;28;20222;-74
2023/03/17 18:54:42;;;;;;;10.47;5.03;;;13.10;88.40;;;;;;10317875;28;20218;-73
2023/03/17 18:59:42;;;;;;;8.43;4.57;;;13.00;90.20;;;;;;10322659;28;20224;-72
2023/03/17 19:04:45;;;;;;;8.93;5.20;;;12.90;91.10;;;;;;10311222;28;20254;-73
2023/03/17 19:09:46;;;;;;;7.03;5.00;;;12.90;92.40;;;;;;10314474;28;20249;-73
2023/03/17 19:14:47;;;;;;;8.93;5.57;;;12.90;93.40;;;;;;10308681;28;20249;-74
2023/03/17 19:19:49;;;;;;;8.83;5.20;;;12.90;94.40;;;;;;10331847;28;20217;-73
2023/03/17 19:24:49;;;;;;;7.47;4.53;;;12.90;94.90;;;;;;10320394;28;20230;-73
2023/03/17 19:29:53;;;;;;;8.27;4.83;;;12.90;95.50;;;;;;10310624;28;20226;-74
2023/03/17 19:34:54;;;;;;;10.37;5.30;;;12.80;96.50;;;;;;10327853;28;20682;-73
2023/03/17 19:39:54;;;;;;;9.63;5.70;;;12.80;97.60;;;;;;10324393;28;20226;-74
2023/03/17 19:44:55;;;;;;;7.33;4.53;;;12.90;98.80;;;;;;10314879;28;20225;-72
2023/03/17 19:49:56;;;;;;;9.17;4.80;;;12.90;99.50;;;;;;10318008;28;20804;-73
2023/03/17 19:54:57;;;;;;;8.47;4.20;;;12.90;99.80;;;;;;10315329;28;20221;-73
2023/03/17 19:59:57;;;;;;;8.53;5.50;;;12.90;99.90;;;;;;10322468;28;20253;-72
2023/03/17 20:04:58;;;;;;;7.07;4.47;;;12.90;99.90;;;;;;10310971;28;20222;-72
2023/03/17 20:09:59;;;;;;;6.40;4.67;;;12.80;99.90;;;;;;10317336;28;20248;-73
2023/03/17 20:15:00;;;;;;;10.03;4.77;;;12.70;99.90;;;;;;10310222;28;20285;-72
2023/03/17 20:20:01;;;;;;;12.77;5.10;;;12.70;99.90;;;;;;10310512;28;20217;-73
2023/03/17 20:25:02;;;;;;;8.40;4.90;;;12.60;99.90;;;;;;10326054;28;20688;-72
2023/03/17 20:30:07;;;;;;;8.37;5.47;;;12.70;99.90;;;;;;10317536;28;20747;-72
2023/03/17 20:35:08;;;;;;;9.33;5.33;;;12.70;99.90;;;;;;10312877;28;20210;-73
2023/03/17 20:40:12;;;;;;;7.97;4.83;;;12.70;99.90;;;;;;10314497;28;20182;-73
2023/03/17 20:45:13;;;;;;;10.40;5.20;;;12.70;99.90;;;;;;10313852;28;20187;-74
2023/03/17 20:50:15;;;;;;;10.97;5.33;;;12.70;99.90;;;;;;10310441;28;20213;-73
2023/03/17 20:55:16;;;;;;;7.97;5.43;;;12.70;99.90;;;;;;10312898;28;20612;-72
2023/03/17 21:00:20;;;;;;;14.93;6.00;;;12.80;99.90;;;;;;10312162;28;20680;-73
2023/03/17 21:05:24;;;;;;;8.43;6.00;;;12.80;99.90;;;;;;10311229;28;20514;-73
2023/03/17 21:10:24;;;;;;;11.73;5.93;;;12.80;99.90;;;;;;10311157;28;20217;-73
2023/03/17 21:15:25;;;;;;;8.93;6.23;;;12.80;99.90;;;;;;10310809;28;20301;-73
2023/03/17 21:20:26;;;;;;;10.43;5.53;;;12.70;99.90;;;;;;10321039;28;20268;-73
2023/03/17 21:25:26;;;;;;;11.50;5.97;;;12.70;99.90;;;;;;10303547;28;20214;-74
2023/03/17 21:30:27;;;;;;;7.17;5.03;;;12.80;99.90;;;;;;10317697;28;20245;-73
2023/03/17 21:35:29;;;;;;;9.77;5.80;;;12.70;99.90;;;;;;10305703;28;20374;-72
2023/03/17 21:40:33;;;;;;;11.43;5.50;;;12.70;99.90;;;;;;10303019;28;20309;-73
2023/03/17 21:45:34;;;;;;;6.90;5.00;;;12.70;99.90;;;;;;10313452;28;20254;-72
2023/03/17 21:50:35;;;;;;;9.50;5.33;;;12.80;99.90;;;;;;10303000;28;20241;-73
2023/03/17 21:55:36;;;;;;;6.37;4.60;;;12.70;99.90;;;;;;10310908;28;20234;-73
2023/03/17 22:00:37;;;;;;;11.33;5.40;;;12.70;99.90;;;;;;10309194;28;20786;-71
2023/03/17 22:05:37;;;;;;;9.10;5.37;;;12.70;99.90;;;;;;10316029;28;20226;-72
2023/03/17 22:10:39;;;;;;;7.50;4.80;;;12.70;99.90;;;;;;10302434;28;20231;-73
2023/03/17 22:15:39;;;;;;;7.70;4.77;;;12.70;99.90;;;;;;10310167;28;20713;-71
2023/03/17 22:20:40;;;;;;;7.77;4.67;;;12.70;99.90;;;;;;10315130;28;20224;-72
2023/03/17 22:25:41;;;;;;;8.00;4.77;;;12.70;99.90;;;;;;10302023;28;20226;-72
2023/03/17 22:30:41;;;;;;;9.23;4.77;;;12.70;99.90;;;;;;10308955;28;20772;-72
2023/03/17 22:35:42;;;;;;;6.27;4.33;;;12.80;99.90;;;;;;10303385;28;20291;-72
2023/03/17 22:40:42;;;;;;;8.03;4.60;;;12.70;99.90;;;;;;10307876;28;20221;-73
2023/03/17 22:45:43;;;;;;;9.67;5.23;;;12.70;99.90;;;;;;10314474;28;20242;-72
2023/03/17 22:50:44;;;;;;;13.37;5.13;;;12.70;99.90;;;;;;10307447;28;20248;-72
2023/03/17 22:55:44;;;;;;;11.10;5.50;;;12.70;99.90;;;;;;10303457;28;20222;-72
2023/03/17 23:00:47;;;;;;;8.53;6.00;;;12.60;99.90;;;;;;10311126;28;20812;-72
2023/03/17 23:05:50;;;;;;;12.00;5.87;;;12.60;99.90;;;;;;10317843;28;20238;-72
2023/03/17 23:10:52;;;;;;;8.20;5.70;;;12.60;99.90;;;;;;10316706;28;20243;-72
2023/03/17 23:15:53;;;;;;;7.40;5.43;;;12.50;99.90;;;;;;10315901;28;20281;-72
2023/03/17 23:20:53;;;;;;;8.50;5.30;;;12.50;99.90;;;;;;10316053;28;20218;-71
2023/03/17 23:25:54;;;;;;;8.53;5.43;;;12.50;99.90;;;;;;10320412;28;20230;-73
2023/03/17 23:30:54;;;;;;;6.90;5.10;;;12.40;99.90;;;;;;10312262;28;20322;-72
2023/03/17 23:35:55;;;;;;;7.77;5.23;;;12.40;99.90;;;;;;10310381;28;20222;-72
2023/03/17 23:40:56;;;;;;;7.37;5.47;;;12.40;99.90;;;;;;10325882;28;20280;-72
2023/03/17 23:45:57;;;;;;;10.10;5.60;;;12.30;99.90;;;;;;10321939;28;20222;-71
2023/03/17 23:50:57;;;;;;;8.27;5.53;;;12.40;99.90;;;;;;10336452;28;20316;-72
2023/03/17 23:55:58;;;;;;;7.07;5.40;;;12.30;99.90;;;;;;10317705;28;20217;-72
